| time (UTC) | temp C | wind direction | speed KPH | gust KPH | rain 1hr cm | rain 24hr cm | rain mn cm | humidity % | barometer mb |
| 20260502215313 | 28 | 244 | 8.0 | 8.0 | 0.00 | 0.00 | 0.00 | 44 | 1009.0 |
| 20260502214313 | 28 | 244 | 8.0 | 8.0 | 0.00 | 0.00 | 0.00 | 44 | 1009.0 |
| 20260502213313 | 28 | 244 | 8.0 | 8.0 | 0.00 | 0.00 | 0.00 | 44 | 1009.0 |
| 20260502212312 | 28 | 244 | 8.0 | 8.0 | 0.00 | 0.00 | 0.00 | 44 | 1009.0 |
| 20260502211312 | 28 | 244 | 8.0 | 8.0 | 0.00 | 0.00 | 0.00 | 44 | 1009.0 |
| 20260502210312 | 28 | 244 | 8.0 | 8.0 | 0.00 | 0.00 | 0.00 | 44 | 1009.0 |
| 20260502205312 | 28 | 244 | 8.0 | 8.0 | 0.00 | 0.00 | 0.00 | 44 | 1009.0 |
| 20260502204311 | 28 | 244 | 8.0 | 8.0 | 0.00 | 0.00 | 0.00 | 44 | 1009.0 |
| 20260502203311 | 28 | 244 | 8.0 | 8.0 | 0.00 | 0.00 | 0.00 | 44 | 1009.0 |
| 20260502202310 | 28 | 244 | 8.0 | 8.0 | 0.00 | 0.00 | 0.00 | 44 | 1009.0 |
| 20260502201310 | 28 | 244 | 8.0 | 8.0 | 0.00 | 0.00 | 0.00 | 44 | 1009.0 |
| 20260502200310 | 28 | 244 | 8.0 | 8.0 | 0.00 | 0.00 | 0.00 | 44 | 1009.0 |
| 20260502195310 | 28 | 244 | 9.7 | 9.7 | 0.00 | 0.00 | 0.00 | 44 | 1009.0 |
| 20260502194309 | 28 | 244 | 9.7 | 9.7 | 0.00 | 0.00 | 0.00 | 44 | 1009.0 |
| 20260502193309 | 28 | 244 | 9.7 | 9.7 | 0.00 | 0.00 | 0.00 | 44 | 1009.0 |
| 20260502192309 | 27 | 237 | 9.7 | 12.9 | 0.00 | 0.00 | 0.00 | 44 | 1010.0 |
| 20260502191309 | 28 | 237 | 9.7 | 12.9 | 0.00 | 0.00 | 0.00 | 44 | 1010.0 |
| 20260502190308 | 28 | 237 | 9.7 | 12.9 | 0.00 | 0.00 | 0.00 | 44 | 1010.0 |
| 20260502185308 | 27 | 237 | 9.7 | 12.9 | 0.00 | 0.00 | 0.00 | 44 | 1010.0 |
| 20260502184308 | 27 | 237 | 9.7 | 12.9 | 0.00 | 0.00 | 0.00 | 45 | 1010.0 |
| 20260502183307 | 27 | 237 | 9.7 | 12.9 | 0.00 | 0.00 | 0.00 | 45 | 1010.0 |
| 20260502182307 | 26 | 217 | 8.0 | 11.3 | 0.00 | 0.00 | 0.00 | 47 | 1011.0 |
| 20260502181307 | 26 | 217 | 8.0 | 11.3 | 0.00 | 0.00 | 0.00 | 47 | 1011.0 |
| 20260502180307 | 26 | 217 | 8.0 | 11.3 | 0.00 | 0.00 | 0.00 | 47 | 1011.0 |
| 20260502170305 | 26 | 208 | 6.4 | 8.0 | 0.00 | 0.00 | 0.00 | 52 | 1012.0 |
| 20260502164304 | 25 | 208 | 6.4 | 8.0 | 0.00 | 0.00 | 0.00 | 53 | 1012.0 |
| 20260502163304 | 25 | 208 | 6.4 | 8.0 | 0.00 | 0.00 | 0.00 | 53 | 1012.0 |
| 20260502162304 | 25 | 204 | 3.2 | 8.0 | 0.00 | 0.00 | 0.00 | 55 | 1013.0 |
| 20260502161303 | 25 | 204 | 3.2 | 8.0 | 0.00 | 0.00 | 0.00 | 55 | 1013.0 |
| 20260502160303 | 25 | 204 | 3.2 | 8.0 | 0.00 | 0.00 | 0.00 | 55 | 1013.0 |
| 20260502152305 | 25 | 254 | 0.0 | 6.4 | 0.00 | 0.00 | 0.00 | 61 | 1013.0 |
| 20260502151301 | 24 | 254 | 0.0 | 6.4 | 0.00 | 0.00 | 0.00 | 60 | 1013.0 |
| 20260502150301 | 24 | 254 | 0.0 | 6.4 | 0.00 | 0.00 | 0.00 | 59 | 1013.0 |
| 20260502130258 | 23 | 299 | 1.6 | 1.6 | 0.00 | 0.00 | 0.00 | 54 | 1013.0 |
| 20260502123257 | 23 | 299 | 1.6 | 1.6 | 0.00 | 0.00 | 0.00 | 54 | 1013.0 |
| 20260502122256 | 23 | 299 | 1.6 | 1.6 | 0.00 | 0.00 | 0.00 | 54 | 1012.0 |
| 20260502121256 | 23 | 299 | 1.6 | 1.6 | 0.00 | 0.00 | 0.00 | 54 | 1012.0 |
| 20260502120255 | 23 | 299 | 1.6 | 1.6 | 0.00 | 0.00 | 0.00 | 54 | 1012.0 |
| 20260502115255 | 23 | 299 | 1.6 | 1.6 | 0.00 | 0.00 | 0.00 | 54 | 1012.0 |
| 20260502114255 | 23 | 299 | 1.6 | 1.6 | 0.00 | 0.00 | 0.00 | 54 | 1012.0 |
| 20260502113254 | 23 | 299 | 1.6 | 1.6 | 0.00 | 0.00 | 0.00 | 54 | 1012.0 |
| 20260502112254 | 23 | 299 | 1.6 | 1.6 | 0.00 | 0.00 | 0.00 | 54 | 1012.0 |
| 20260502111254 | 23 | 299 | 1.6 | 1.6 | 0.00 | 0.00 | 0.00 | 54 | 1012.0 |
| 20260502110254 | 23 | 299 | 1.6 | 1.6 | 0.00 | 0.00 | 0.00 | 54 | 1012.0 |
| 20260502105253 | 23 | 299 | 1.6 | 1.6 | 0.00 | 0.00 | 0.00 | 54 | 1012.0 |
| 20260502104253 | 23 | 299 | 1.6 | 1.6 | 0.00 | 0.00 | 0.00 | 54 | 1012.0 |
| 20260502103252 | 23 | 299 | 1.6 | 1.6 | 0.00 | 0.00 | 0.00 | 54 | 1012.0 |
| 20260502102252 | 23 | 299 | 1.6 | 1.6 | 0.00 | 0.00 | 0.00 | 54 | 1011.0 |
| 20260502101252 | 23 | 299 | 1.6 | 1.6 | 0.00 | 0.00 | 0.00 | 54 | 1011.0 |
| 20260502100251 | 23 | 299 | 1.6 | 1.6 | 0.00 | 0.00 | 0.00 | 54 | 1011.0 |
| 20260502091250 | 23 | 299 | 1.6 | 1.6 | 0.00 | 0.00 | 0.00 | 54 | 1011.0 |
| 20260502090250 | 23 | 299 | 1.6 | 1.6 | 0.00 | 0.00 | 0.00 | 54 | 1011.0 |
| 20260502071246 | 23 | 299 | 1.6 | 1.6 | 0.00 | 0.00 | 0.00 | 54 | 1012.0 |
| 20260502070246 | 23 | 299 | 1.6 | 1.6 | 0.00 | 0.00 | 0.00 | 54 | 1012.0 |
| 20260502065246 | 23 | 299 | 1.6 | 1.6 | 0.00 | 0.00 | 0.00 | 54 | 1012.0 |
| 20260502064245 | 23 | 299 | 1.6 | 1.6 | 0.00 | 0.00 | 0.00 | 54 | 1012.0 |
| 20260502063245 | 23 | 299 | 1.6 | 1.6 | 0.00 | 0.00 | 0.00 | 54 | 1012.0 |
| 20260502062244 | 23 | 299 | 1.6 | 1.6 | 0.00 | 0.00 | 0.00 | 54 | 1012.0 |
| 20260502061244 | 23 | 299 | 1.6 | 1.6 | 0.00 | 0.00 | 0.00 | 54 | 1012.0 |
| 20260502060244 | 23 | 299 | 1.6 | 1.6 | 0.00 | 0.00 | 0.00 | 54 | 1012.0 |
| 20260502055243 | 23 | 299 | 1.6 | 1.6 | 0.00 | 0.00 | 0.00 | 54 | 1012.0 |
| 20260502054243 | 23 | 299 | 1.6 | 1.6 | 0.00 | 0.00 | 0.00 | 54 | 1012.0 |
| 20260502053243 | 23 | 299 | 1.6 | 1.6 | 0.00 | 0.00 | 0.00 | 54 | 1012.0 |
| 20260502052243 | 23 | 299 | 1.6 | 1.6 | 0.00 | 0.00 | 0.00 | 54 | 1012.0 |
| 20260502051243 | 23 | 299 | 1.6 | 1.6 | 0.00 | 0.00 | 0.00 | 54 | 1012.0 |
| 20260502050242 | 23 | 299 | 1.6 | 1.6 | 0.00 | 0.00 | 0.00 | 54 | 1012.0 |
| 20260502045242 | 23 | 299 | 1.6 | 1.6 | 0.00 | 0.00 | 0.00 | 54 | 1012.0 |
| 20260502044242 | 23 | 299 | 1.6 | 1.6 | 0.00 | 0.00 | 0.00 | 54 | 1012.0 |
| 20260502043241 | 23 | 299 | 1.6 | 1.6 | 0.00 | 0.00 | 0.00 | 54 | 1012.0 |
| 20260502042241 | 23 | 299 | 1.6 | 1.6 | 0.00 | 0.00 | 0.00 | 54 | 1012.0 |
| 20260502041241 | 23 | 299 | 1.6 | 1.6 | 0.00 | 0.00 | 0.00 | 54 | 1012.0 |
| 20260502040240 | 23 | 299 | 1.6 | 1.6 | 0.00 | 0.00 | 0.00 | 54 | 1012.0 |
| 20260502035240 | 23 | 299 | 1.6 | 1.6 | 0.00 | 0.00 | 0.00 | 54 | 1012.0 |
| 20260502034240 | 23 | 299 | 1.6 | 1.6 | 0.00 | 0.00 | 0.00 | 54 | 1012.0 |
| 20260502033239 | 23 | 299 | 1.6 | 1.6 | 0.00 | 0.00 | 0.00 | 54 | 1012.0 |
| 20260502032239 | 23 | 299 | 1.6 | 1.6 | 0.00 | 0.00 | 0.00 | 54 | 1011.0 |
| 20260502031239 | 23 | 299 | 1.6 | 1.6 | 0.00 | 0.00 | 0.00 | 54 | 1011.0 |
| 20260502030238 | 23 | 299 | 1.6 | 1.6 | 0.00 | 0.00 | 0.00 | 54 | 1011.0 |
| 20260502025238 | 23 | 299 | 1.6 | 1.6 | 0.00 | 0.00 | 0.00 | 54 | 1011.0 |
| 20260502024238 | 24 | 299 | 1.6 | 1.6 | 0.00 | 0.00 | 0.00 | 54 | 1011.0 |
| 20260502023238 | 27 | 304 | 4.8 | 1.6 | 0.00 | 0.00 | 0.00 | 37 | 1011.0 |
| 20260502022237 | 27 | 304 | 4.8 | 1.6 | 0.00 | 0.00 | 0.00 | 37 | 1010.0 |
| 20260502021237 | 27 | 304 | 4.8 | 1.6 | 0.00 | 0.00 | 0.00 | 37 | 1010.0 |
| 20260502020237 | 27 | 304 | 4.8 | 1.6 | 0.00 | 0.00 | 0.00 | 37 | 1010.0 |
| 20260502015237 | 27 | 304 | 4.8 | 1.6 | 0.00 | 0.00 | 0.00 | 37 | 1010.0 |
| 20260502014236 | 27 | 304 | 4.8 | 1.6 | 0.00 | 0.00 | 0.00 | 37 | 1010.0 |
| 20260502013236 | 27 | 304 | 4.8 | 1.6 | 0.00 | 0.00 | 0.00 | 37 | 1010.0 |
| 20260502012236 | 27 | 304 | 4.8 | 1.6 | 0.00 | 0.00 | 0.00 | 37 | 1009.0 |
| 20260502011235 | 27 | 304 | 4.8 | 1.6 | 0.00 | 0.00 | 0.00 | 37 | 1009.0 |
| 20260502010235 | 27 | 304 | 4.8 | 1.6 | 0.00 | 0.00 | 0.00 | 37 | 1009.0 |
| 20260502005235 | 27 | 304 | 4.8 | 1.6 | 0.00 | 0.00 | 0.00 | 37 | 1009.0 |
| 20260502004234 | 27 | 304 | 4.8 | 1.6 | 0.00 | 0.00 | 0.00 | 37 | 1009.0 |
| 20260502003234 | 27 | 304 | 4.8 | 1.6 | 0.00 | 0.00 | 0.00 | 37 | 1009.0 |
| 20260502002234 | 27 | 304 | 4.8 | 1.6 | 0.00 | 0.00 | 0.00 | 37 | 1008.0 |
| 20260502001233 | 27 | 304 | 4.8 | 1.6 | 0.00 | 0.00 | 0.00 | 37 | 1008.0 |
| 20260502000233 | 27 | 304 | 4.8 | 1.6 | 0.00 | 0.00 | 0.00 | 37 | 1008.0 |
| 20260501235233 | 27 | 304 | 4.8 | 1.6 | 0.00 | 0.00 | 0.00 | 37 | 1008.0 |
| 20260501234232 | 27 | 304 | 4.8 | 1.6 | 0.00 | 0.00 | 0.00 | 37 | 1008.0 |
| 20260501233232 | 27 | 304 | 4.8 | 1.6 | 0.00 | 0.00 | 0.00 | 37 | 1008.0 |
| 20260501232232 | 27 | 304 | 4.8 | 1.6 | 0.00 | 0.00 | 0.00 | 37 | 1007.0 |
| 20260501231231 | 27 | 304 | 4.8 | 1.6 | 0.00 | 0.00 | 0.00 | 37 | 1007.0 |
| 20260501230231 | 27 | 304 | 4.8 | 1.6 | 0.00 | 0.00 | 0.00 | 37 | 1007.0 |
| 20260501225231 | 27 | 304 | 4.8 | 1.6 | 0.00 | 0.00 | 0.00 | 37 | 1007.0 |
| 20260501224231 | 27 | 304 | 4.8 | 1.6 | 0.00 | 0.00 | 0.00 | 37 | 1007.0 |
| 20260501223230 | 27 | 304 | 4.8 | 1.6 | 0.00 | 0.00 | 0.00 | 37 | 1007.0 |
| 20260501222230 | 27 | 304 | 4.8 | 1.6 | 0.00 | 0.00 | 0.00 | 37 | 1007.0 |
| 20260501221230 | 27 | 304 | 4.8 | 1.6 | 0.00 | 0.00 | 0.00 | 37 | 1007.0 |
| 20260501220229 | 27 | 304 | 4.8 | 1.6 | 0.00 | 0.00 | 0.00 | 37 | 1007.0 |